Latest Weather Observations for Banana Bank

IDQ60901

Issued at 7:41 pm EST Thursday 21 February 2019 (issued every 10 minutes, with the page automatically refreshed every 10 minutes)

About weather observations | Map of Brisbane area stations | Latest observations for Brisbane area | Other Formats
Station Details ID: 040925 Name: BANANA BANK NORTH BEACON Lat: -27.53 Lon: 153.33 Height: 7.0 m
Data from the previous 72 hours. | See also: Recent months at Banana Bank
Date/Time
EST
Temp
°C
App
Temp
°C
Dew
Point
°C
Rel
Hum
%
Delta-T
°C
Wind Press
QNH
hPa
Press
MSL
hPa
Rain since
9am
mm
Dir  Spd
km/h
Gust
km/h
Spd
kts
Gust
kts
21/07:30pm - - - - - SSE 46 57 25 31 - - -
21/07:00pm - - - - - SSE 48 61 26 33 - - -
21/06:30pm - - - - - SSE 43 52 23 28 - - -
21/06:00pm - - - - - SSE 48 59 26 32 - - -
21/05:30pm - - - - - SSE 48 59 26 32 - - -
21/05:00pm - - - - - SE 52 61 28 33 - - -
21/04:30pm - - - - - SSE 46 57 25 31 - - -
21/04:00pm - - - - - SE 50 59 27 32 - - -
21/03:30pm - - - - - SE 46 56 25 30 - - -
21/03:00pm - - - - - SSE 44 57 24 31 - - -
21/02:30pm - - - - - SSE 44 54 24 29 - - -
21/02:00pm - - - - - SSE 46 56 25 30 - - -
21/01:30pm - - - - - SSE 39 48 21 26 - - -
21/01:00pm - - - - - SSE 43 50 23 27 - - -
21/12:30pm - - - - - SSE 41 46 22 25 - - -
21/12:00pm - - - - - SSE 39 50 21 27 - - -
21/11:30am - - - - - SSE 33 43 18 23 - - -
21/11:00am - - - - - SSE 39 46 21 25 - - -
21/10:30am - - - - - SSE 37 44 20 24 - - -
21/10:00am - - - - - SE 32 44 17 24 - - -
21/09:30am - - - - - SSE 30 37 16 20 - - -
21/09:00am - - - - - SSE 32 41 17 22 - - -
21/08:30am - - - - - SSE 30 39 16 21 - - -
21/08:00am - - - - - SSE 30 37 16 20 - - -
21/07:30am - - - - - S 24 32 13 17 - - -
21/07:00am - - - - - S 20 24 11 13 - - -
21/06:30am - - - - - S 20 22 11 12 - - -
21/06:00am - - - - - SSE 20 24 11 13 - - -
21/05:30am - - - - - SSE 24 30 13 16 - - -
21/05:00am - - - - - SSE 22 28 12 15 - - -
21/04:30am - - - - - SSE 20 26 11 14 - - -
21/04:00am - - - - - SSE 22 28 12 15 - - -
21/03:30am - - - - - SE 24 30 13 16 - - -
21/03:00am - - - - - ESE 30 35 16 19 - - -
21/02:30am - - - - - SE 28 33 15 18 - - -
21/02:00am - - - - - SSE 26 32 14 17 - - -
21/01:30am - - - - - SSE 33 39 18 21 - - -
21/01:00am - - - - - SSE 24 32 13 17 - - -
21/12:30am - - - - - S 22 30 12 16 - - -
21/12:00am - - - - - SSW 30 35 16 19 - - -
 
Date/Time
EST
Temp
°C
App
Temp
°C
Dew
Point
°C
Rel
Hum
%
Delta-T
°C
Wind Press
QNH
hPa
Press
MSL
hPa
Rain since
9am
mm
Dir  Spd
km/h
Gust
km/h
Spd
kts
Gust
kts
20/11:30pm - - - - - SSE 30 33 16 18 - - -
20/11:00pm - - - - - S 26 32 14 17 - - -
20/10:30pm - - - - - SSE 26 32 14 17 - - -
20/10:00pm - - - - - SE 24 28 13 15 - - -
20/09:30pm - - - - - SE 19 22 10 12 - - -
20/09:00pm - - - - - SE 17 20 9 11 - - -
20/08:30pm - - - - - ESE 17 20 9 11 - - -
20/08:00pm - - - - - ESE 19 24 10 13 - - -
20/07:30pm - - - - - SE 19 24 10 13 - - -
20/07:00pm - - - - - SE 17 22 9 12 - - -
20/06:30pm - - - - - SE 19 22 10 12 - - -
20/06:00pm - - - - - SE 24 28 13 15 - - -
20/05:30pm - - - - - SE 24 28 13 15 - - -
20/05:00pm - - - - - SE 24 30 13 16 - - -
20/04:30pm - - - - - SE 26 32 14 17 - - -
20/04:00pm - - - - - ESE 28 32 15 17 - - -
20/03:30pm - - - - - ESE 24 28 13 15 - - -
20/03:00pm - - - - - ESE 22 26 12 14 - - -
20/02:30pm - - - - - ESE 26 30 14 16 - - -
20/02:00pm - - - - - ESE 20 26 11 14 - - -
20/01:30pm - - - - - SE 19 22 10 12 - - -
20/01:00pm - - - - - ESE 20 24 11 13 - - -
20/12:30pm - - - - - SE 20 24 11 13 - - -
20/12:00pm - - - - - SE 20 24 11 13 - - -
20/11:30am - - - - - SE 20 24 11 13 - - -
20/11:00am - - - - - SSE 20 24 11 13 - - -
20/10:30am - - - - - SE 19 22 10 12 - - -
20/10:00am - - - - - SSE 19 24 10 13 - - -
20/09:30am - - - - - SSE 20 24 11 13 - - -
20/09:00am - - - - - SSE 17 22 9 12 - - -
20/08:30am - - - - - S 15 20 8 11 - - -
20/08:00am - - - - - S 15 17 8 9 - - -
20/07:30am - - - - - S 13 15 7 8 - - -
20/07:00am - - - - - SSW 13 17 7 9 - - -
20/06:30am - - - - - SSW 11 15 6 8 - - -
20/06:00am - - - - - SSW 13 17 7 9 - - -
20/05:30am - - - - - SSW 13 15 7 8 - - -
20/05:00am - - - - - S 9 11 5 6 - - -
20/04:30am - - - - - S 9 13 5 7 - - -
20/04:00am - - - - - SSE 9 13 5 7 - - -
20/03:30am - - - - - SE 13 15 7 8 - - -
20/03:00am - - - - - SE 15 17 8 9 - - -
20/02:30am - - - - - ESE 9 9 5 5 - - -
20/02:00am - - - - - ESE 9 9 5 5 - - -
20/01:30am - - - - - ESE 6 6 3 3 - - -
20/01:00am - - - - - E 4 6 2 3 - - -
20/12:30am - - - - - E 4 6 2 3 - - -
20/12:00am - - - - - E 6 6 3 3 - - -
 
Date/Time
EST
Temp
°C
App
Temp
°C
Dew
Point
°C
Rel
Hum
%
Delta-T
°C
Wind Press
QNH
hPa
Press
MSL
hPa
Rain since
9am
mm
Dir  Spd
km/h
Gust
km/h
Spd
kts
Gust
kts
19/11:30pm - - - - - ENE 4 6 2 3 - - -
19/11:00pm - - - - - ENE 6 7 3 4 - - -
19/10:30pm - - - - - ENE 4 6 2 3 - - -
19/10:00pm - - - - - NNE 4 6 2 3 - - -
19/09:30pm - - - - - NE 6 9 3 5 - - -
19/09:00pm - - - - - ENE 7 9 4 5 - - -
19/08:30pm - - - - - NE 7 11 4 6 - - -
19/08:00pm - - - - - ENE 9 11 5 6 - - -
19/07:30pm - - - - - NE 11 15 6 8 - - -
19/07:00pm - - - - - NE 11 15 6 8 - - -
19/06:30pm - - - - - NE 15 19 8 10 - - -
19/06:00pm - - - - - ENE 15 19 8 10 - - -
19/05:30pm - - - - - ENE 17 20 9 11 - - -
19/05:00pm - - - - - E 19 20 10 11 - - -
19/04:30pm - - - - - E 17 19 9 10 - - -
19/04:00pm - - - - - ENE 15 19 8 10 - - -
19/03:30pm - - - - - NE 15 19 8 10 - - -
19/03:00pm - - - - - NE 13 17 7 9 - - -
19/02:30pm - - - - - NNE 19 22 10 12 - - -
19/02:00pm - - - - - N 19 22 10 12 - - -
19/01:30pm - - - - - N 15 20 8 11 - - -
19/01:00pm - - - - - N 15 17 8 9 - - -
19/12:30pm - - - - - N 13 15 7 8 - - -
19/12:00pm - - - - - N 9 13 5 7 - - -
19/11:30am - - - - - N 6 9 3 5 - - -
19/11:00am - - - - - NNW 4 4 2 2 - - -
19/10:30am - - - - - W 2 4 1 2 - - -
19/10:00am - - - - - W 4 6 2 3 - - -
19/09:30am - - - - - SW 6 6 3 3 - - -
19/09:00am - - - - - SW 6 7 3 4 - - -
19/08:30am - - - - - SSW 6 7 3 4 - - -
19/08:00am - - - - - SSW 4 7 2 4 - - -
19/07:30am - - - - - SSE 6 7 3 4 - - -
19/07:00am - - - - - S 6 9 3 5 - - -
19/06:30am - - - - - S 6 7 3 4 - - -
19/06:00am - - - - - S 7 9 4 5 - - -
19/05:30am - - - - - S 9 11 5 6 - - -
19/05:00am - - - - - SSW 9 11 5 6 - - -
19/04:30am - - - - - SSW 13 15 7 8 - - -
19/04:00am - - - - - SW 13 15 7 8 - - -
19/03:30am - - - - - SSW 13 15 7 8 - - -
19/03:00am - - - - - SSW 9 11 5 6 - - -
19/02:30am - - - - - S 9 11 5 6 - - -
19/02:00am - - - - - S 9 11 5 6 - - -
19/01:30am - - - - - SSW 9 9 5 5 - - -
19/01:00am - - - - - SSW 11 13 6 7 - - -
19/12:30am - - - - - SSE 4 6 2 3 - - -
19/12:00am - - - - - ESE 6 7 3 4 - - -
 
Date/Time
EST
Temp
°C
App
Temp
°C
Dew
Point
°C
Rel
Hum
%
Delta-T
°C
Wind Press
QNH
hPa
Press
MSL
hPa
Rain since
9am
mm
Dir  Spd
km/h
Gust
km/h
Spd
kts
Gust
kts
18/11:30pm - - - - - E 9 11 5 6 - - -
18/11:00pm - - - - - ESE 13 15 7 8 - - -
18/10:30pm - - - - - ESE 15 17 8 9 - - -
18/10:00pm - - - - - ESE 9 13 5 7 - - -
18/09:30pm - - - - - ESE 11 13 6 7 - - -
18/09:00pm - - - - - E 11 15 6 8 - - -
18/08:30pm - - - - - ESE 13 17 7 9 - - -
18/08:00pm - - - - - ESE 15 17 8 9 - - -

Latest Capital City Observations: Canberra | Sydney | Melbourne | Brisbane | Adelaide | Perth | Hobart | Darwin

Other formats

Comma delimited format used in spreadsheet applications
http://www.bom.gov.au/fwo/IDQ60901/IDQ60901.94591.axf

JavaScript Object Notation format (JSON) in row-major order
http://www.bom.gov.au/fwo/IDQ60901/IDQ60901.94591.json

Data quality

Most of these data are generated automatically and are frequently updated. Quality checks on data are not normally performed. It is possible for incorrect values to appear. Refer to information at About Latest Weather Observations and please check the disclaimer before using these data.